sensor_id;sensor_type;location;lat;lon;timestamp;pressure;altitude;pressure_sealevel;temperature;humidity
3102;BME280;1561;42.666;23.392;2023-07-24T00:01:28;95433.69;;;20.89;100.00
3102;BME280;1561;42.666;23.392;2023-07-24T00:03:55;95443.19;;;20.67;100.00
3102;BME280;1561;42.666;23.392;2023-07-24T00:06:24;95430.47;;;20.58;100.00
3102;BME280;1561;42.666;23.392;2023-07-24T00:08:55;95434.25;;;20.55;100.00
3102;BME280;1561;42.666;23.392;2023-07-24T00:11:25;95428.97;;;20.49;100.00
3102;BME280;1561;42.666;23.392;2023-07-24T00:13:51;95420.72;;;20.45;100.00
3102;BME280;1561;42.666;23.392;2023-07-24T00:16:19;95424.59;;;20.49;100.00
3102;BME280;1561;42.666;23.392;2023-07-24T00:18:47;95421.91;;;20.43;100.00
3102;BME280;1561;42.666;23.392;2023-07-24T00:21:14;95429.22;;;20.39;100.00
3102;BME280;1561;42.666;23.392;2023-07-24T00:23:41;95434.31;;;20.47;100.00
3102;BME280;1561;42.666;23.392;2023-07-24T00:26:11;95426.00;;;20.52;100.00
3102;BME280;1561;42.666;23.392;2023-07-24T00:28:39;95427.25;;;20.41;100.00
3102;BME280;1561;42.666;23.392;2023-07-24T00:31:11;95434.41;;;20.54;100.00
3102;BME280;1561;42.666;23.392;2023-07-24T00:33:38;95430.38;;;20.51;100.00
3102;BME280;1561;42.666;23.392;2023-07-24T00:36:05;95416.78;;;20.35;100.00
3102;BME280;1561;42.666;23.392;2023-07-24T00:38:32;95434.31;;;20.47;100.00
3102;BME280;1561;42.666;23.392;2023-07-24T00:41:01;95430.38;;;20.37;100.00
3102;BME280;1561;42.666;23.392;2023-07-24T00:43:29;95424.91;;;20.32;100.00
3102;BME280;1561;42.666;23.392;2023-07-24T00:45:58;95315.72;;;20.04;100.00
3102;BME280;1561;42.666;23.392;2023-07-24T00:48:25;95436.38;;;20.81;100.00
3102;BME280;1561;42.666;23.392;2023-07-24T00:50:53;95423.31;;;20.74;100.00
3102;BME280;1561;42.666;23.392;2023-07-24T00:53:23;95424.66;;;20.70;100.00
3102;BME280;1561;42.666;23.392;2023-07-24T00:55:50;95427.72;;;20.74;100.00
3102;BME280;1561;42.666;23.392;2023-07-24T00:58:19;95418.63;;;20.84;100.00
3102;BME280;1561;42.666;23.392;2023-07-24T01:00:50;95318.84;;;20.00;100.00
3102;BME280;1561;42.666;23.392;2023-07-24T01:03:20;95423.38;;;20.66;100.00
3102;BME280;1561;42.666;23.392;2023-07-24T01:05:50;95420.63;;;20.68;100.00
3102;BME280;1561;42.666;23.392;2023-07-24T01:08:17;95408.28;;;20.55;100.00
3102;BME280;1561;42.666;23.392;2023-07-24T01:10:45;95424.03;;;20.54;100.00
3102;BME280;1561;42.666;23.392;2023-07-24T01:13:15;95421.06;;;20.42;100.00
3102;BME280;1561;42.666;23.392;2023-07-24T01:15:48;95418.22;;;20.52;100.00
3102;BME280;1561;42.666;23.392;2023-07-24T01:18:19;95418.56;;;20.49;100.00
3102;BME280;1561;42.666;23.392;2023-07-24T01:20:50;95419.66;;;20.40;100.00
3102;BME280;1561;42.666;23.392;2023-07-24T01:23:30;95410.59;;;20.36;100.00
3102;BME280;1561;42.666;23.392;2023-07-24T01:26:07;95422.50;;;20.30;100.00
3102;BME280;1561;42.666;23.392;2023-07-24T01:28:36;95417.66;;;20.42;100.00
3102;BME280;1561;42.666;23.392;2023-07-24T01:31:03;95419.53;;;20.19;100.00
3102;BME280;1561;42.666;23.392;2023-07-24T01:33:33;95416.25;;;20.02;100.00
3102;BME280;1561;42.666;23.392;2023-07-24T01:36:03;95405.22;;;20.00;100.00
3102;BME280;1561;42.666;23.392;2023-07-24T01:38:31;95412.13;;;19.93;100.00
3102;BME280;1561;42.666;23.392;2023-07-24T01:40:58;95413.72;;;19.94;100.00
3102;BME280;1561;42.666;23.392;2023-07-24T01:43:30;95412.28;;;19.92;100.00
3102;BME280;1561;42.666;23.392;2023-07-24T01:45:58;95399.31;;;19.92;100.00
3102;BME280;1561;42.666;23.392;2023-07-24T01:48:33;95414.94;;;19.84;100.00
3102;BME280;1561;42.666;23.392;2023-07-24T01:51:02;95422.69;;;19.69;100.00
3102;BME280;1561;42.666;23.392;2023-07-24T01:53:29;95443.03;;;19.80;100.00
3102;BME280;1561;42.666;23.392;2023-07-24T01:55:58;95466.34;;;19.80;100.00
3102;BME280;1561;42.666;23.392;2023-07-24T01:58:25;95435.19;;;19.88;100.00
3102;BME280;1561;42.666;23.392;2023-07-24T02:01:01;95423.72;;;19.83;100.00
3102;BME280;1561;42.666;23.392;2023-07-24T02:03:28;95415.81;;;19.76;100.00
3102;BME280;1561;42.666;23.392;2023-07-24T02:05:55;95408.44;;;19.65;100.00
3102;BME280;1561;42.666;23.392;2023-07-24T02:08:22;95422.09;;;19.59;100.00
3102;BME280;1561;42.666;23.392;2023-07-24T02:10:52;95427.84;;;19.55;100.00
3102;BME280;1561;42.666;23.392;2023-07-24T02:13:18;95424.00;;;19.43;100.00
3102;BME280;1561;42.666;23.392;2023-07-24T02:15:46;95413.50;;;19.44;100.00
3102;BME280;1561;42.666;23.392;2023-07-24T02:18:14;95412.16;;;19.48;100.00
3102;BME280;1561;42.666;23.392;2023-07-24T02:20:48;95419.47;;;19.67;100.00
3102;BME280;1561;42.666;23.392;2023-07-24T02:23:15;95426.13;;;19.62;100.00
3102;BME280;1561;42.666;23.392;2023-07-24T02:25:43;95417.63;;;19.53;100.00
3102;BME280;1561;42.666;23.392;2023-07-24T02:28:11;95411.50;;;19.46;100.00
3102;BME280;1561;42.666;23.392;2023-07-24T02:30:39;95427.22;;;19.45;100.00
3102;BME280;1561;42.666;23.392;2023-07-24T02:33:06;95411.84;;;19.43;100.00
3102;BME280;1561;42.666;23.392;2023-07-24T02:35:40;95396.25;;;19.51;100.00
3102;BME280;1561;42.666;23.392;2023-07-24T02:38:10;95404.31;;;19.56;100.00
3102;BME280;1561;42.666;23.392;2023-07-24T02:40:37;95408.63;;;19.41;100.00
3102;BME280;1561;42.666;23.392;2023-07-24T02:43:04;95412.22;;;19.40;100.00
3102;BME280;1561;42.666;23.392;2023-07-24T02:45:33;95411.00;;;19.20;100.00
3102;BME280;1561;42.666;23.392;2023-07-24T02:48:05;95404.19;;;19.27;100.00
3102;BME280;1561;42.666;23.392;2023-07-24T02:50:34;95416.53;;;19.48;100.00
3102;BME280;1561;42.666;23.392;2023-07-24T02:53:07;95416.19;;;19.51;100.00
3102;BME280;1561;42.666;23.392;2023-07-24T02:55:34;95417.63;;;19.53;100.00
3102;BME280;1561;42.666;23.392;2023-07-24T02:58:00;95382.34;;;19.22;100.00
3102;BME280;1561;42.666;23.392;2023-07-24T03:00:27;95410.41;;;19.41;100.00
3102;BME280;1561;42.666;23.392;2023-07-24T03:02:55;95408.75;;;19.48;100.00
3102;BME280;1561;42.666;23.392;2023-07-24T03:05:24;95409.38;;;19.50;100.00
3102;BME280;1561;42.666;23.392;2023-07-24T03:07:51;95412.38;;;19.39;100.00
3102;BME280;1561;42.666;23.392;2023-07-24T03:10:21;95385.78;;;19.45;100.00
3102;BME280;1561;42.666;23.392;2023-07-24T03:12:49;95404.78;;;19.37;100.00
3102;BME280;1561;42.666;23.392;2023-07-24T03:15:16;95400.91;;;19.33;100.00
3102;BME280;1561;42.666;23.392;2023-07-24T03:17:43;95409.34;;;19.35;100.00
3102;BME280;1561;42.666;23.392;2023-07-24T03:20:14;95402.06;;;19.31;100.00
3102;BME280;1561;42.666;23.392;2023-07-24T03:22:41;95407.09;;;19.32;100.00
3102;BME280;1561;42.666;23.392;2023-07-24T03:25:09;95412.53;;;19.37;100.00
3102;BME280;1561;42.666;23.392;2023-07-24T03:27:38;95397.59;;;19.25;100.00
3102;BME280;1561;42.666;23.392;2023-07-24T03:30:06;95405.75;;;19.36;100.00
3102;BME280;1561;42.666;23.392;2023-07-24T03:32:36;95416.03;;;19.52;100.00
3102;BME280;1561;42.666;23.392;2023-07-24T03:35:04;95406.56;;;19.59;100.00
3102;BME280;1561;42.666;23.392;2023-07-24T03:37:31;95403.25;;;19.88;100.00
3102;BME280;1561;42.666;23.392;2023-07-24T03:39:58;95415.50;;;20.16;100.00
3102;BME280;1561;42.666;23.392;2023-07-24T03:42:27;95412.47;;;20.56;100.00
3102;BME280;1561;42.666;23.392;2023-07-24T03:44:56;95408.16;;;21.07;100.00
3102;BME280;1561;42.666;23.392;2023-07-24T03:47:24;95401.63;;;20.82;100.00
3102;BME280;1561;42.666;23.392;2023-07-24T03:49:51;95414.72;;;20.45;100.00
3102;BME280;1561;42.666;23.392;2023-07-24T03:52:22;95303.03;;;20.09;100.00
3102;BME280;1561;42.666;23.392;2023-07-24T03:54:52;95416.94;;;21.06;100.00
3102;BME280;1561;42.666;23.392;2023-07-24T03:57:19;95431.22;;;20.52;100.00
3102;BME280;1561;42.666;23.392;2023-07-24T03:59:48;95432.91;;;20.08;100.00
3102;BME280;1561;42.666;23.392;2023-07-24T04:02:19;95432.38;;;19.53;100.00
3102;BME280;1561;42.666;23.392;2023-07-24T04:04:45;95441.06;;;19.60;100.00
3102;BME280;1561;42.666;23.392;2023-07-24T04:07:16;95432.66;;;19.35;100.00
3102;BME280;1561;42.666;23.392;2023-07-24T04:09:44;95428.22;;;19.44;100.00
3102;BME280;1561;42.666;23.392;2023-07-24T04:12:13;95425.22;;;19.77;100.00
3102;BME280;1561;42.666;23.392;2023-07-24T04:14:40;95429.75;;;20.64;100.00
3102;BME280;1561;42.666;23.392;2023-07-24T04:17:09;95433.41;;;21.13;100.00
3102;BME280;1561;42.666;23.392;2023-07-24T04:19:44;95428.38;;;21.47;100.00
3102;BME280;1561;42.666;23.392;2023-07-24T04:22:10;95424.81;;;21.69;100.00
3102;BME280;1561;42.666;23.392;2023-07-24T04:24:37;95426.78;;;21.88;100.00
3102;BME280;1561;42.666;23.392;2023-07-24T04:27:05;95412.03;;;22.77;100.00
3102;BME280;1561;42.666;23.392;2023-07-24T04:29:32;95423.44;;;22.76;100.00
3102;BME280;1561;42.666;23.392;2023-07-24T04:31:58;95429.75;;;22.95;100.00
3102;BME280;1561;42.666;23.392;2023-07-24T04:34:28;95422.19;;;23.06;100.00
3102;BME280;1561;42.666;23.392;2023-07-24T04:36:59;95419.53;;;22.93;100.00
3102;BME280;1561;42.666;23.392;2023-07-24T04:39:29;95431.94;;;23.39;100.00
3102;BME280;1561;42.666;23.392;2023-07-24T04:41:58;95427.25;;;24.07;100.00
3102;BME280;1561;42.666;23.392;2023-07-24T04:44:26;95425.59;;;24.71;100.00
3102;BME280;1561;42.666;23.392;2023-07-24T04:46:53;95335.72;;;23.96;100.00
3102;BME280;1561;42.666;23.392;2023-07-24T04:49:21;95420.44;;;25.09;100.00
3102;BME280;1561;42.666;23.392;2023-07-24T04:51:48;95329.91;;;24.77;100.00
3102;BME280;1561;42.666;23.392;2023-07-24T04:54:17;95429.06;;;25.29;100.00
3102;BME280;1561;42.666;23.392;2023-07-24T04:56:44;95439.28;;;24.47;100.00
3102;BME280;1561;42.666;23.392;2023-07-24T04:59:11;95436.38;;;25.01;100.00
3102;BME280;1561;42.666;23.392;2023-07-24T05:01:38;95405.97;;;26.37;100.00
3102;BME280;1561;42.666;23.392;2023-07-24T05:04:14;95417.09;;;26.08;100.00
3102;BME280;1561;42.666;23.392;2023-07-24T05:06:44;95401.44;;;26.26;100.00
3102;BME280;1561;42.666;23.392;2023-07-24T05:09:12;95420.19;;;26.90;93.64
3102;BME280;1561;42.666;23.392;2023-07-24T05:11:42;95409.84;;;27.31;82.39
3102;BME280;1561;42.666;23.392;2023-07-24T05:14:10;95425.59;;;28.54;72.47
3102;BME280;1561;42.666;23.392;2023-07-24T05:16:37;95425.59;;;28.42;72.58
3102;BME280;1561;42.666;23.392;2023-07-24T05:19:04;95419.69;;;28.17;71.82
3102;BME280;1561;42.666;23.392;2023-07-24T05:21:32;95423.88;;;27.95;73.04
3102;BME280;1561;42.666;23.392;2023-07-24T05:23:59;95428.13;;;27.37;81.85
3102;BME280;1561;42.666;23.392;2023-07-24T05:26:27;95424.88;;;28.58;74.73
3102;BME280;1561;42.666;23.392;2023-07-24T05:28:55;95417.69;;;29.40;68.70
3102;BME280;1561;42.666;23.392;2023-07-24T05:31:23;95415.50;;;29.08;69.35
3102;BME280;1561;42.666;23.392;2023-07-24T05:33:52;95415.41;;;29.88;62.70
3102;BME280;1561;42.666;23.392;2023-07-24T05:36:20;95408.06;;;29.05;64.25
3102;BME280;1561;42.666;23.392;2023-07-24T05:38:48;95406.59;;;30.10;61.28
3102;BME280;1561;42.666;23.392;2023-07-24T05:41:15;95423.06;;;28.70;65.63
3102;BME280;1561;42.666;23.392;2023-07-24T05:43:46;95395.06;;;29.55;63.54
3102;BME280;1561;42.666;23.392;2023-07-24T05:46:19;95415.28;;;27.88;72.98
3102;BME280;1561;42.666;23.392;2023-07-24T05:48:46;95412.75;;;28.23;73.25
3102;BME280;1561;42.666;23.392;2023-07-24T05:51:16;95343.09;;;27.79;71.61
3102;BME280;1561;42.666;23.392;2023-07-24T05:53:44;95385.44;;;29.61;64.74
3102;BME280;1561;42.666;23.392;2023-07-24T05:56:11;95384.72;;;30.81;60.11
3102;BME280;1561;42.666;23.392;2023-07-24T05:58:38;95400.34;;;30.00;60.66
3102;BME280;1561;42.666;23.392;2023-07-24T06:01:06;95396.50;;;28.95;70.18
3102;BME280;1561;42.666;23.392;2023-07-24T06:03:38;95397.09;;;28.62;72.19
3102;BME280;1561;42.666;23.392;2023-07-24T06:06:05;95404.75;;;28.75;70.32
3102;BME280;1561;42.666;23.392;2023-07-24T06:08:33;95377.34;;;30.12;63.62
3102;BME280;1561;42.666;23.392;2023-07-24T06:10:59;95383.31;;;29.46;66.93
3102;BME280;1561;42.666;23.392;2023-07-24T06:13:26;95382.75;;;28.93;70.50
3102;BME280;1561;42.666;23.392;2023-07-24T06:15:54;95389.78;;;27.77;81.45
3102;BME280;1561;42.666;23.392;2023-07-24T06:18:21;95394.50;;;29.25;71.84
3102;BME280;1561;42.666;23.392;2023-07-24T06:20:57;95388.56;;;29.18;68.58
3102;BME280;1561;42.666;23.392;2023-07-24T06:23:24;95298.06;;;27.53;72.93
3102;BME280;1561;42.666;23.392;2023-07-24T06:25:54;95384.16;;;29.63;66.77
3102;BME280;1561;42.666;23.392;2023-07-24T06:28:21;95379.56;;;30.03;64.77
3102;BME280;1561;42.666;23.392;2023-07-24T06:30:48;95382.25;;;29.59;63.80
3102;BME280;1561;42.666;23.392;2023-07-24T06:33:20;95382.47;;;30.68;58.77
3102;BME280;1561;42.666;23.392;2023-07-24T06:35:47;95382.47;;;29.57;63.02
3102;BME280;1561;42.666;23.392;2023-07-24T06:38:17;95377.75;;;29.87;61.93
3102;BME280;1561;42.666;23.392;2023-07-24T06:40:46;95378.13;;;31.00;56.16
3102;BME280;1561;42.666;23.392;2023-07-24T06:43:13;95391.41;;;28.65;64.32
3102;BME280;1561;42.666;23.392;2023-07-24T06:45:41;95382.59;;;29.51;61.62
3102;BME280;1561;42.666;23.392;2023-07-24T06:48:08;95374.13;;;29.60;59.25
3102;BME280;1561;42.666;23.392;2023-07-24T06:50:36;95376.53;;;29.78;59.85
3102;BME280;1561;42.666;23.392;2023-07-24T06:53:02;95360.13;;;30.97;55.12
3102;BME280;1561;42.666;23.392;2023-07-24T06:55:33;95377.06;;;30.79;55.56
3102;BME280;1561;42.666;23.392;2023-07-24T06:58:01;95380.22;;;30.60;56.68
3102;BME280;1561;42.666;23.392;2023-07-24T07:00:31;95376.97;;;32.18;53.32
3102;BME280;1561;42.666;23.392;2023-07-24T07:02:59;95381.94;;;31.09;54.51
3102;BME280;1561;42.666;23.392;2023-07-24T07:05:28;95383.63;;;31.20;55.93
3102;BME280;1561;42.666;23.392;2023-07-24T07:07:55;95374.50;;;31.75;53.36
3102;BME280;1561;42.666;23.392;2023-07-24T07:10:23;95390.22;;;30.96;54.37
3102;BME280;1561;42.666;23.392;2023-07-24T07:12:52;95377.78;;;31.87;52.37
3102;BME280;1561;42.666;23.392;2023-07-24T07:15:20;95389.31;;;29.86;58.63
3102;BME280;1561;42.666;23.392;2023-07-24T07:17:48;95390.00;;;30.26;57.14
3102;BME280;1561;42.666;23.392;2023-07-24T07:20:16;95375.53;;;32.01;53.34
3102;BME280;1561;42.666;23.392;2023-07-24T07:22:43;95368.13;;;32.76;50.72
3102;BME280;1561;42.666;23.392;2023-07-24T07:25:10;95377.16;;;31.54;53.25
3102;BME280;1561;42.666;23.392;2023-07-24T07:27:38;95376.78;;;31.67;52.61
3102;BME280;1561;42.666;23.392;2023-07-24T07:30:09;95382.25;;;31.87;52.24
3102;BME280;1561;42.666;23.392;2023-07-24T07:32:39;95374.16;;;33.23;48.29
3102;BME280;1561;42.666;23.392;2023-07-24T07:35:07;95319.75;;;34.32;45.13
3102;BME280;1561;42.666;23.392;2023-07-24T07:37:36;95370.44;;;31.68;51.39
3102;BME280;1561;42.666;23.392;2023-07-24T07:40:05;95359.19;;;34.73;44.27
3102;BME280;1561;42.666;23.392;2023-07-24T07:42:33;95356.59;;;34.18;44.91
3102;BME280;1561;42.666;23.392;2023-07-24T07:45:03;95359.50;;;34.57;43.49
3102;BME280;1561;42.666;23.392;2023-07-24T07:47:35;95292.72;;;31.64;48.64
3102;BME280;1561;42.666;23.392;2023-07-24T07:50:08;95351.63;;;35.16;43.33
3102;BME280;1561;42.666;23.392;2023-07-24T07:52:35;95354.22;;;34.37;43.36
3102;BME280;1561;42.666;23.392;2023-07-24T07:55:03;95359.91;;;36.01;40.66
3102;BME280;1561;42.666;23.392;2023-07-24T07:57:34;95364.03;;;36.51;39.08
3102;BME280;1561;42.666;23.392;2023-07-24T08:00:01;95350.97;;;34.85;41.24
3102;BME280;1561;42.666;23.392;2023-07-24T08:02:39;95356.09;;;35.30;40.49
3102;BME280;1561;42.666;23.392;2023-07-24T08:05:07;95362.53;;;36.06;39.58
3102;BME280;1561;42.666;23.392;2023-07-24T08:07:34;95354.72;;;35.43;39.15
3102;BME280;1561;42.666;23.392;2023-07-24T08:10:05;95350.78;;;35.79;38.91
3102;BME280;1561;42.666;23.392;2023-07-24T08:12:31;95355.13;;;35.06;39.83
3102;BME280;1561;42.666;23.392;2023-07-24T08:14:59;95359.50;;;35.89;38.85
3102;BME280;1561;42.666;23.392;2023-07-24T08:17:27;95347.97;;;35.02;39.09
3102;BME280;1561;42.666;23.392;2023-07-24T08:19:55;95346.91;;;35.08;39.16
3102;BME280;1561;42.666;23.392;2023-07-24T08:22:25;95343.09;;;32.98;42.07
3102;BME280;1561;42.666;23.392;2023-07-24T08:24:52;95343.25;;;36.24;38.21
3102;BME280;1561;42.666;23.392;2023-07-24T08:27:25;95336.75;;;35.68;38.30
3102;BME280;1561;42.666;23.392;2023-07-24T08:29:52;95343.63;;;35.26;39.15
3102;BME280;1561;42.666;23.392;2023-07-24T08:32:20;95312.50;;;36.65;36.64
3102;BME280;1561;42.666;23.392;2023-07-24T08:34:46;95325.84;;;37.07;36.21
3102;BME280;1561;42.666;23.392;2023-07-24T08:37:15;95327.28;;;36.24;36.41
3102;BME280;1561;42.666;23.392;2023-07-24T08:39:42;95322.41;;;36.60;35.82
3102;BME280;1561;42.666;23.392;2023-07-24T08:42:10;95315.22;;;36.84;35.71
3102;BME280;1561;42.666;23.392;2023-07-24T08:44:39;95319.44;;;36.38;36.14
3102;BME280;1561;42.666;23.392;2023-07-24T08:47:12;95306.59;;;38.21;34.55
3102;BME280;1561;42.666;23.392;2023-07-24T08:49:43;95307.88;;;37.60;34.91
3102;BME280;1561;42.666;23.392;2023-07-24T08:52:13;95312.66;;;37.21;35.26
3102;BME280;1561;42.666;23.392;2023-07-24T08:54:43;95306.44;;;38.90;33.04
3102;BME280;1561;42.666;23.392;2023-07-24T08:57:12;95311.03;;;39.25;32.63
3102;BME280;1561;42.666;23.392;2023-07-24T08:59:41;95315.41;;;36.69;35.36
3102;BME280;1561;42.666;23.392;2023-07-24T09:02:10;95296.69;;;37.90;33.90
3102;BME280;1561;42.666;23.392;2023-07-24T09:04:44;95304.31;;;38.87;32.58
3102;BME280;1561;42.666;23.392;2023-07-24T09:07:11;95302.94;;;38.63;33.15
3102;BME280;1561;42.666;23.392;2023-07-24T09:09:39;95287.25;;;37.97;33.88
3102;BME280;1561;42.666;23.392;2023-07-24T09:12:08;95302.59;;;37.36;34.43
3102;BME280;1561;42.666;23.392;2023-07-24T09:14:35;95301.16;;;38.26;32.78
3102;BME280;1561;42.666;23.392;2023-07-24T09:17:05;95301.03;;;36.41;35.23
3102;BME280;1561;42.666;23.392;2023-07-24T09:19:33;95296.44;;;37.54;34.14
3102;BME280;1561;42.666;23.392;2023-07-24T09:22:11;95292.94;;;38.68;33.11
3102;BME280;1561;42.666;23.392;2023-07-24T09:24:49;95288.72;;;38.35;32.71
3102;BME280;1561;42.666;23.392;2023-07-24T09:27:20;95293.22;;;35.93;36.13
3102;BME280;1561;42.666;23.392;2023-07-24T09:29:48;95279.50;;;37.27;34.23
3102;BME280;1561;42.666;23.392;2023-07-24T09:32:23;95281.25;;;38.51;32.39
3102;BME280;1561;42.666;23.392;2023-07-24T09:34:50;95276.13;;;38.68;32.65
3102;BME280;1561;42.666;23.392;2023-07-24T09:37:26;95258.50;;;37.62;33.31
3102;BME280;1561;42.666;23.392;2023-07-24T09:39:54;95269.03;;;38.31;32.98
3102;BME280;1561;42.666;23.392;2023-07-24T09:42:30;95263.56;;;38.09;32.72
3102;BME280;1561;42.666;23.392;2023-07-24T09:44:57;95253.75;;;37.22;34.39
3102;BME280;1561;42.666;23.392;2023-07-24T09:47:25;95254.00;;;38.35;32.36
3102;BME280;1561;42.666;23.392;2023-07-24T09:49:52;95254.94;;;37.67;33.43
3102;BME280;1561;42.666;23.392;2023-07-24T09:52:20;95256.03;;;35.88;34.71
3102;BME280;1561;42.666;23.392;2023-07-24T09:54:55;95242.34;;;36.75;34.11
3102;BME280;1561;42.666;23.392;2023-07-24T09:57:24;95210.41;;;37.81;32.55
3102;BME280;1561;42.666;23.392;2023-07-24T09:59:54;95207.50;;;38.09;32.76
3102;BME280;1561;42.666;23.392;2023-07-24T10:02:25;95160.28;;;38.10;32.30
3102;BME280;1561;42.666;23.392;2023-07-24T10:04:53;95233.88;;;38.43;32.07
3102;BME280;1561;42.666;23.392;2023-07-24T10:07:22;95237.09;;;39.07;31.71
3102;BME280;1561;42.666;23.392;2023-07-24T10:09:50;95226.94;;;37.96;32.49
3102;BME280;1561;42.666;23.392;2023-07-24T10:12:19;95228.09;;;37.26;33.60
3102;BME280;1561;42.666;23.392;2023-07-24T10:14:48;95220.13;;;36.37;34.51
3102;BME280;1561;42.666;23.392;2023-07-24T10:17:34;95210.91;;;36.53;35.12
3102;BME280;1561;42.666;23.392;2023-07-24T10:20:03;95209.88;;;37.15;34.56
3102;BME280;1561;42.666;23.392;2023-07-24T10:22:33;95212.09;;;35.18;36.34
3102;BME280;1561;42.666;23.392;2023-07-24T10:25:01;95211.47;;;35.75;35.52
3102;BME280;1561;42.666;23.392;2023-07-24T10:27:31;95196.06;;;37.08;34.23
3102;BME280;1561;42.666;23.392;2023-07-24T10:30:00;95202.00;;;36.16;34.99
3102;BME280;1561;42.666;23.392;2023-07-24T10:32:32;95167.41;;;36.81;34.35
3102;BME280;1561;42.666;23.392;2023-07-24T10:35:07;95179.38;;;37.39;34.12
3102;BME280;1561;42.666;23.392;2023-07-24T10:37:35;95187.38;;;37.85;33.92
3102;BME280;1561;42.666;23.392;2023-07-24T10:40:03;95130.88;;;37.83;32.68
3102;BME280;1561;42.666;23.392;2023-07-24T10:42:31;95182.53;;;38.05;33.57
3102;BME280;1561;42.666;23.392;2023-07-24T10:45:06;95180.00;;;37.95;33.34
3102;BME280;1561;42.666;23.392;2023-07-24T10:47:35;95041.44;;;35.31;35.30
3102;BME280;1561;42.666;23.392;2023-07-24T10:50:04;95178.44;;;37.12;33.96
3102;BME280;1561;42.666;23.392;2023-07-24T10:52:33;95187.31;;;36.23;35.49
3102;BME280;1561;42.666;23.392;2023-07-24T10:55:00;95173.97;;;36.47;35.25
3102;BME280;1561;42.666;23.392;2023-07-24T10:57:29;95171.44;;;36.13;36.10
3102;BME280;1561;42.666;23.392;2023-07-24T10:59:56;95178.22;;;35.05;37.67
3102;BME280;1561;42.666;23.392;2023-07-24T11:02:27;95170.16;;;34.76;38.35
3102;BME280;1561;42.666;23.392;2023-07-24T11:05:00;95170.13;;;35.87;37.34
3102;BME280;1561;42.666;23.392;2023-07-24T11:07:34;95174.25;;;37.06;35.68
3102;BME280;1561;42.666;23.392;2023-07-24T11:10:01;95172.25;;;36.56;35.57
3102;BME280;1561;42.666;23.392;2023-07-24T11:12:28;95157.06;;;36.80;35.09
3102;BME280;1561;42.666;23.392;2023-07-24T11:14:58;95148.50;;;36.17;35.56
3102;BME280;1561;42.666;23.392;2023-07-24T11:17:34;95146.19;;;35.87;36.19
3102;BME280;1561;42.666;23.392;2023-07-24T11:20:12;95147.63;;;35.13;37.45
3102;BME280;1561;42.666;23.392;2023-07-24T11:22:40;95137.19;;;36.07;36.45
3102;BME280;1561;42.666;23.392;2023-07-24T11:25:10;95146.97;;;34.92;38.95
3102;BME280;1561;42.666;23.392;2023-07-24T11:27:43;95138.28;;;35.49;38.38
3102;BME280;1561;42.666;23.392;2023-07-24T11:30:11;95130.66;;;36.41;37.25
3102;BME280;1561;42.666;23.392;2023-07-24T11:32:39;95125.69;;;36.11;37.52
3102;BME280;1561;42.666;23.392;2023-07-24T11:35:06;95123.41;;;36.00;36.77
3102;BME280;1561;42.666;23.392;2023-07-24T11:37:40;95129.13;;;35.88;36.29
3102;BME280;1561;42.666;23.392;2023-07-24T11:40:09;95121.47;;;36.52;34.82
3102;BME280;1561;42.666;23.392;2023-07-24T11:42:40;95120.03;;;36.97;34.27
3102;BME280;1561;42.666;23.392;2023-07-24T11:45:09;95113.25;;;37.23;33.94
3102;BME280;1561;42.666;23.392;2023-07-24T11:47:51;95110.81;;;35.25;37.80
3102;BME280;1561;42.666;23.392;2023-07-24T11:50:19;95104.72;;;35.58;37.93
3102;BME280;1561;42.666;23.392;2023-07-24T11:52:51;95112.22;;;36.03;36.92
3102;BME280;1561;42.666;23.392;2023-07-24T11:55:31;95113.28;;;35.78;37.20
3102;BME280;1561;42.666;23.392;2023-07-24T11:57:59;95105.50;;;35.25;37.28
3102;BME280;1561;42.666;23.392;2023-07-24T12:00:27;95103.03;;;36.56;35.78
3102;BME280;1561;42.666;23.392;2023-07-24T12:02:59;95094.50;;;37.28;34.75
3102;BME280;1561;42.666;23.392;2023-07-24T12:05:26;95103.78;;;35.72;36.29
3102;BME280;1561;42.666;23.392;2023-07-24T12:07:55;95100.63;;;35.94;36.95
3102;BME280;1561;42.666;23.392;2023-07-24T12:10:26;95106.63;;;36.28;36.15
3102;BME280;1561;42.666;23.392;2023-07-24T12:12:59;95097.00;;;36.32;35.90
3102;BME280;1561;42.666;23.392;2023-07-24T12:15:33;95029.81;;;36.40;34.86
3102;BME280;1561;42.666;23.392;2023-07-24T12:18:03;95098.91;;;36.26;36.26
3102;BME280;1561;42.666;23.392;2023-07-24T12:20:30;95098.44;;;35.49;37.69
3102;BME280;1561;42.666;23.392;2023-07-24T12:23:01;95099.69;;;35.28;38.22
3102;BME280;1561;42.666;23.392;2023-07-24T12:25:38;95096.78;;;35.53;37.58
3102;BME280;1561;42.666;23.392;2023-07-24T12:28:05;95093.69;;;35.69;37.34
3102;BME280;1561;42.666;23.392;2023-07-24T12:30:33;95099.50;;;35.48;37.49
3102;BME280;1561;42.666;23.392;2023-07-24T12:33:02;95084.94;;;35.40;37.59
3102;BME280;1561;42.666;23.392;2023-07-24T12:35:29;95088.09;;;35.14;37.90
3102;BME280;1561;42.666;23.392;2023-07-24T12:37:57;95052.13;;;34.59;38.70
3102;BME280;1561;42.666;23.392;2023-07-24T12:40:28;95085.28;;;35.00;38.88
3102;BME280;1561;42.666;23.392;2023-07-24T12:42:56;95073.47;;;34.83;39.04
3102;BME280;1561;42.666;23.392;2023-07-24T12:45:23;95082.47;;;34.43;38.56
3102;BME280;1561;42.666;23.392;2023-07-24T12:47:51;95072.16;;;34.80;38.12
3102;BME280;1561;42.666;23.392;2023-07-24T12:50:21;95071.09;;;34.81;38.38
3102;BME280;1561;42.666;23.392;2023-07-24T12:52:51;95072.13;;;35.47;37.64
3102;BME280;1561;42.666;23.392;2023-07-24T12:55:19;95065.88;;;35.33;37.82
3102;BME280;1561;42.666;23.392;2023-07-24T12:57:47;95075.94;;;35.08;37.96
3102;BME280;1561;42.666;23.392;2023-07-24T13:00:15;95066.97;;;35.56;37.37
3102;BME280;1561;42.666;23.392;2023-07-24T13:02:43;95054.03;;;35.21;37.22
3102;BME280;1561;42.666;23.392;2023-07-24T13:05:11;95067.06;;;35.17;36.99
3102;BME280;1561;42.666;23.392;2023-07-24T13:07:39;95075.22;;;34.97;37.60
3102;BME280;1561;42.666;23.392;2023-07-24T13:10:11;95033.88;;;35.15;37.54
3102;BME280;1561;42.666;23.392;2023-07-24T13:12:38;95056.63;;;35.31;37.88
3102;BME280;1561;42.666;23.392;2023-07-24T13:15:07;95043.53;;;34.72;39.14
3102;BME280;1561;42.666;23.392;2023-07-24T13:17:34;95053.94;;;34.63;38.48